This is the latest recevied weather packets stored in our database for station/object YO8PIC-5. If no packets are shown the sender has not sent any weather packets the latest 10 day(s).
| Time | Temp. | Humidity | Pressure | Rain* | Wind** | Luminosity | Snow |
|---|---|---|---|---|---|---|---|
| 1777696020 | 5° C | 76% | 1022.6 hPa | - | - | - | - |
| 1777695120 | 4.44° C | 79% | 1022.6 hPa | - | - | - | - |
| 1777694220 | 3.89° C | 80% | 1022.6 hPa | - | - | - | - |
| 1777693320 | 3.89° C | 81% | 1022.5 hPa | - | - | - | - |
| 1777692419 | 3.33° C | 81% | 1022.4 hPa | - | - | - | - |
| 1777691519 | 3.33° C | 82% | 1022.3 hPa | - | - | - | - |
| 1777690633 | 3.33° C | 81% | 1022.3 hPa | - | - | - | - |
| 1777689719 | 3.33° C | 79% | 1022.2 hPa | - | - | - | - |
| 1777688819 | 3.33° C | 78% | 1022.2 hPa | - | - | - | - |
| 1777687918 | 3.33° C | 78% | 1022.2 hPa | - | - | - | - |
| 1777687018 | 3.33° C | 82% | 1022.3 hPa | - | - | - | - |
| 1777686118 | 2.78° C | 82% | 1022.3 hPa | - | - | - | - |
| 1777685218 | 3.33° C | 77% | 1022.3 hPa | - | - | - | - |
| 1777684317 | 3.33° C | 77% | 1022.3 hPa | - | - | - | - |
| 1777683417 | 3.89° C | 76% | 1022.4 hPa | - | - | - | - |
| 1777682517 | 3.89° C | 76% | 1022.5 hPa | - | - | - | - |
| 1777681620 | 3.33° C | 78% | 1022.5 hPa | - | - | - | - |
| 1777680720 | 3.33° C | 76% | 1022.4 hPa | - | - | - | - |
| 1777679819 | 3.33° C | 80% | 1022.5 hPa | - | - | - | - |
| 1777678919 | 3.89° C | 76% | 1022.4 hPa | - | - | - | - |
| 1777678019 | 3.33° C | 78% | 1022.3 hPa | - | - | - | - |
| 1777677119 | 3.89° C | 76% | 1022.4 hPa | - | - | - | - |
| 1777676219 | 3.89° C | 77% | 1022.5 hPa | - | - | - | - |
| 1777675318 | 3.89° C | 77% | 1022.7 hPa | - | - | - | - |
| 1777674419 | 3.89° C | 79% | 1022.8 hPa | - | - | - | - |
* Rain since midnight (hover to see other rain measurements)
** Current wind speed in m/s (hover to see current wind gust speed)